< < Back
Terminal Aerodrome Forecast


Current Version              Previous Versions:   1  2  3  4  5  6  7  8  9  

Terminal Aerodrome Forecast

823
FTUS44 KOHX 281800 AAA
TAFBNA
TAF AMD
KBNA 281846Z 2819/2918 07006KT P6SM VCTS SCT040CB
     FM290000 13003KT P6SM BKN070
     FM290600 15002KT P6SM SCT250
      TEMPO 2911/2913 3SM HZ
     FM291400 17007KT P6SM SCT250=



Latest METAR

413
SAUS70 KWBC 290100 RRC
MTRBNA
METAR KBNA 290053Z 34005KT 10SM SCT042 BKN050 BKN080 BKN250 28/22 A3000
RMK AO2 TSB08E47 SLP152 T02780217


USA.gov is the U.S. government's official web portal to all federal, state and local government web resources and services.